createdAt,value
2023-02-28T00:01:23.961Z,-1.00
2023-02-28T00:03:50.727Z,-1.00
2023-02-28T00:06:17.564Z,-1.00
2023-02-28T00:08:44.562Z,-1.00
2023-02-28T00:11:13.603Z,-0.90
2023-02-28T00:13:43.532Z,-0.90
2023-02-28T00:16:14.235Z,-0.80
2023-02-28T00:18:41.629Z,-0.70
2023-02-28T00:21:08.989Z,-0.70
2023-02-28T00:23:36.280Z,-0.60
2023-02-28T00:26:03.138Z,-0.60
2023-02-28T00:28:30.136Z,-0.50
2023-02-28T00:31:00.971Z,-0.50
2023-02-28T00:33:28.881Z,-0.50
2023-02-28T00:36:15.943Z,-0.40
2023-02-28T00:38:42.967Z,-0.40
2023-02-28T00:41:10.283Z,-0.40
2023-02-28T00:43:39.541Z,-0.40
2023-02-28T00:46:07.006Z,-0.40
2023-02-28T00:48:35.350Z,-0.40
2023-02-28T00:51:03.039Z,-0.40
2023-02-28T00:53:30.512Z,-0.40
2023-02-28T00:55:58.119Z,-0.30
2023-02-28T00:58:26.233Z,-0.30
2023-02-28T01:00:54.766Z,-0.30
2023-02-28T01:03:22.207Z,-0.20
2023-02-28T01:05:48.959Z,-0.20
2023-02-28T01:08:17.371Z,-0.20
2023-02-28T01:10:44.241Z,-0.20
2023-02-28T01:13:12.387Z,-0.20
2023-02-28T01:15:42.518Z,-0.20
2023-02-28T01:18:09.406Z,-0.20
2023-02-28T01:20:38.921Z,-0.20
2023-02-28T01:23:05.712Z,-0.20
2023-02-28T01:25:37.936Z,-0.20
2023-02-28T01:28:06.898Z,-0.20
2023-02-28T01:30:34.819Z,-0.20
2023-02-28T01:33:01.668Z,-0.20
2023-02-28T01:35:28.478Z,-0.10
2023-02-28T01:37:55.405Z,-0.10
2023-02-28T01:40:22.946Z,-0.10
2023-02-28T01:42:49.721Z,-0.10
2023-02-28T01:45:35.594Z,-0.10
2023-02-28T01:48:06.890Z,-0.10
2023-02-28T01:50:39.438Z,-0.20
2023-02-28T01:53:11.410Z,-0.20
2023-02-28T01:55:38.723Z,-0.20
2023-02-28T01:58:08.273Z,-0.20
2023-02-28T02:00:36.571Z,-0.20
2023-02-28T02:03:11.387Z,-0.20
2023-02-28T02:05:39.821Z,-0.30
2023-02-28T02:08:11.053Z,-0.30
2023-02-28T02:10:48.866Z,-0.40
2023-02-28T02:13:50.533Z,-0.40
2023-02-28T02:16:29.574Z,-0.50
2023-02-28T02:19:05.768Z,-0.60
2023-02-28T02:21:38.360Z,-0.70
2023-02-28T02:24:20.196Z,-0.80
2023-02-28T02:27:06.928Z,-0.90
2023-02-28T02:29:56.320Z,-1.00
2023-02-28T02:32:40.039Z,-1.00
2023-02-28T02:35:28.459Z,-1.10
2023-02-28T02:38:20.723Z,-1.10
2023-02-28T02:41:02.829Z,-1.10
2023-02-28T02:43:38.868Z,-1.20
2023-02-28T02:46:11.094Z,-1.20
2023-02-28T02:48:43.100Z,-1.20
2023-02-28T02:51:16.887Z,-1.20
2023-02-28T02:53:54.595Z,-1.20
2023-02-28T02:56:27.205Z,-1.20
2023-02-28T02:58:59.110Z,-1.30
2023-02-28T03:01:29.540Z,-1.30
2023-02-28T03:04:04.390Z,-1.30
2023-02-28T03:06:31.551Z,-1.40
2023-02-28T03:08:58.492Z,-1.40
2023-02-28T03:11:25.275Z,-1.40
2023-02-28T03:14:17.049Z,-1.50
2023-02-28T03:16:55.328Z,-1.50
2023-02-28T03:19:37.645Z,-1.60
2023-02-28T03:22:13.676Z,-1.70
2023-02-28T03:24:55.733Z,-1.80
2023-02-28T03:27:31.043Z,-1.90
2023-02-28T03:30:07.225Z,-2.00
2023-02-28T03:32:39.644Z,-2.00
2023-02-28T03:35:15.019Z,-2.10
2023-02-28T03:37:44.697Z,-2.20
2023-02-28T03:40:18.103Z,-2.30
2023-02-28T03:42:49.198Z,-2.30
2023-02-28T03:45:30.828Z,-2.40
2023-02-28T03:48:19.611Z,-2.50
2023-02-28T03:50:50.452Z,-2.50
2023-02-28T03:53:45.302Z,-2.60
2023-02-28T03:56:25.970Z,-2.60
2023-02-28T03:59:01.059Z,-2.70
2023-02-28T04:01:42.402Z,-2.70
2023-02-28T04:04:14.416Z,-2.80
2023-02-28T04:06:42.143Z,-2.80
2023-02-28T04:11:53.659Z,-3.00
2023-02-28T04:14:20.538Z,-3.00
2023-02-28T04:16:47.976Z,-3.00
2023-02-28T04:19:15.667Z,-3.10
2023-02-28T04:21:46.919Z,-3.10
2023-02-28T04:24:22.453Z,-3.20
2023-02-28T04:26:52.728Z,-3.20
2023-02-28T04:29:22.144Z,-3.20
2023-02-28T04:31:49.428Z,-3.20
2023-02-28T04:34:17.453Z,-3.30
2023-02-28T04:36:44.229Z,-3.30
2023-02-28T04:39:10.958Z,-3.30
2023-02-28T04:41:38.647Z,-3.30
2023-02-28T04:44:05.497Z,-3.40
2023-02-28T04:46:34.516Z,-3.40
2023-02-28T04:49:01.340Z,-3.40
2023-02-28T04:51:28.499Z,-3.40
2023-02-28T04:53:55.703Z,-3.50
2023-02-28T04:56:22.477Z,-3.50
2023-02-28T04:58:49.983Z,-3.50
2023-02-28T05:01:29.473Z,-3.50
2023-02-28T05:03:58.906Z,-3.50
2023-02-28T05:06:28.108Z,-3.50
2023-02-28T05:08:54.877Z,-3.50
2023-02-28T05:11:24.280Z,-3.60
2023-02-28T05:13:52.512Z,-3.60
2023-02-28T05:16:19.941Z,-3.60
2023-02-28T05:18:47.336Z,-3.60
2023-02-28T05:21:28.169Z,-3.60
2023-02-28T05:23:56.380Z,-3.60
2023-02-28T05:26:24.110Z,-3.60
2023-02-28T05:28:50.941Z,-3.60
2023-02-28T05:31:17.842Z,-3.60
2023-02-28T05:33:44.702Z,-3.60
2023-02-28T05:36:11.643Z,-3.50
2023-02-28T05:38:39.035Z,-3.50
2023-02-28T05:41:10.445Z,-3.40
2023-02-28T05:43:38.476Z,-3.30
2023-02-28T05:46:10.380Z,-3.20
2023-02-28T05:48:39.181Z,-3.20
2023-02-28T05:51:07.952Z,-3.10
2023-02-28T05:53:35.432Z,-3.00
2023-02-28T05:56:02.201Z,-2.90
2023-02-28T05:58:31.773Z,-2.80
2023-02-28T06:01:39.582Z,-2.70
2023-02-28T06:04:19.290Z,-2.60
2023-02-28T06:06:50.268Z,-2.50
2023-02-28T06:09:18.370Z,-2.50
2023-02-28T06:11:45.201Z,-2.40
2023-02-28T06:14:17.702Z,-2.30
2023-02-28T06:16:44.520Z,-2.20
2023-02-28T06:19:11.673Z,-2.20
2023-02-28T06:21:38.610Z,-2.10
2023-02-28T06:24:06.344Z,-2.00
2023-02-28T06:26:33.191Z,-1.90
2023-02-28T06:29:01.622Z,-1.90
2023-02-28T06:31:30.104Z,-1.80
2023-02-28T06:33:57.631Z,-1.70
2023-02-28T06:36:24.663Z,-1.70
2023-02-28T06:38:55.551Z,-1.60
2023-02-28T06:41:26.874Z,-1.50
2023-02-28T06:43:54.353Z,-1.40
2023-02-28T06:46:21.691Z,-1.30
2023-02-28T06:48:48.875Z,-1.20
2023-02-28T06:51:19.599Z,-1.10
2023-02-28T06:53:46.352Z,-1.00
2023-02-28T06:56:16.267Z,-0.90
2023-02-28T06:58:43.142Z,-0.80
2023-02-28T07:01:10.140Z,-0.70
2023-02-28T07:03:37.720Z,-0.60
2023-02-28T07:06:13.433Z,-0.60
2023-02-28T07:08:41.970Z,-0.50
2023-02-28T07:11:08.721Z,-0.40
2023-02-28T07:13:35.477Z,-0.30
2023-02-28T07:16:05.319Z,-0.20
2023-02-28T07:18:33.645Z,-0.10
2023-02-28T07:21:03.454Z,-0.10
2023-02-28T07:23:30.412Z,-0.10
2023-02-28T07:25:57.371Z,-0.10
2023-02-28T07:28:24.599Z,-0.10
2023-02-28T07:30:51.763Z,-0.10
2023-02-28T07:33:18.869Z,-0.10
2023-02-28T07:35:45.683Z,0.00
2023-02-28T07:38:14.524Z,0.20
2023-02-28T07:40:41.628Z,0.30
2023-02-28T07:43:08.390Z,0.40
2023-02-28T07:45:35.459Z,0.50
2023-02-28T07:48:02.697Z,0.60
2023-02-28T07:50:32.190Z,0.70
2023-02-28T07:53:00.094Z,0.80
2023-02-28T07:55:27.419Z,0.90
2023-02-28T07:57:54.671Z,0.90
2023-02-28T08:00:21.752Z,1.00
2023-02-28T08:02:48.492Z,1.10
2023-02-28T08:05:15.432Z,1.20
2023-02-28T08:07:42.286Z,1.30
2023-02-28T08:10:10.909Z,1.40
2023-02-28T08:12:37.838Z,1.50
2023-02-28T08:15:04.862Z,1.70
2023-02-28T08:17:33.719Z,1.90
2023-02-28T08:20:01.842Z,2.00
2023-02-28T08:22:28.606Z,2.20
2023-02-28T08:24:55.380Z,2.40
2023-02-28T08:27:22.101Z,2.60
2023-02-28T08:29:48.989Z,2.80
2023-02-28T08:32:28.850Z,3.00
2023-02-28T08:34:57.135Z,3.20
2023-02-28T08:37:24.296Z,3.50
2023-02-28T08:39:51.375Z,3.90
2023-02-28T08:42:18.822Z,4.20
2023-02-28T08:44:45.703Z,4.50
2023-02-28T08:47:12.500Z,4.70
2023-02-28T08:49:39.249Z,4.70
2023-02-28T08:52:07.025Z,4.90
2023-02-28T08:54:34.979Z,5.00
2023-02-28T08:57:01.745Z,5.20
2023-02-28T08:59:28.504Z,5.30
2023-02-28T09:01:55.268Z,5.50
2023-02-28T09:04:24.944Z,5.60
2023-02-28T09:06:52.232Z,5.70
2023-02-28T09:09:19.099Z,6.00
2023-02-28T09:11:45.862Z,6.20
2023-02-28T09:14:12.585Z,6.40
2023-02-28T09:16:39.395Z,6.50
2023-02-28T09:19:06.193Z,6.60
2023-02-28T09:21:33.064Z,6.60
2023-02-28T09:23:59.814Z,6.60
2023-02-28T09:26:34.849Z,6.50
2023-02-28T09:29:09.588Z,6.50
2023-02-28T09:31:36.550Z,6.50
2023-02-28T09:34:04.881Z,6.70
2023-02-28T09:36:44.255Z,7.20
2023-02-28T09:39:13.482Z,7.80
2023-02-28T09:41:52.909Z,8.40
2023-02-28T09:44:44.874Z,8.80
2023-02-28T09:47:34.389Z,8.90
2023-02-28T09:50:19.973Z,8.20
2023-02-28T09:52:51.013Z,7.60
2023-02-28T09:55:41.416Z,7.10
2023-02-28T09:58:52.061Z,6.70
2023-02-28T10:01:25.015Z,6.20
2023-02-28T10:04:04.705Z,6.00
2023-02-28T10:06:39.823Z,6.10
2023-02-28T10:09:15.139Z,6.50
2023-02-28T10:11:43.756Z,7.40
2023-02-28T10:14:22.985Z,8.60
2023-02-28T10:16:56.163Z,9.90
2023-02-28T10:19:45.385Z,11.10
2023-02-28T10:22:25.575Z,12.10
2023-02-28T10:24:54.153Z,12.40
2023-02-28T10:27:31.578Z,12.10
2023-02-28T10:30:01.792Z,12.60
2023-02-28T10:32:39.692Z,13.40
2023-02-28T10:35:21.392Z,13.70
2023-02-28T10:37:56.291Z,14.00
2023-02-28T10:40:22.954Z,14.10
2023-02-28T10:43:17.279Z,14.30
2023-02-28T10:46:29.333Z,14.40
2023-02-28T10:49:27.487Z,14.40
2023-02-28T10:52:00.613Z,14.10
2023-02-28T10:54:39.040Z,14.30
2023-02-28T10:57:27.040Z,13.80
2023-02-28T11:00:06.667Z,13.30
2023-02-28T11:02:39.245Z,12.80
2023-02-28T11:05:27.961Z,12.00
2023-02-28T11:08:07.969Z,11.80
2023-02-28T11:10:35.828Z,12.40
2023-02-28T11:13:04.580Z,12.50
2023-02-28T11:15:36.100Z,12.50
2023-02-28T11:18:21.057Z,12.30
2023-02-28T11:20:53.463Z,11.70
2023-02-28T11:23:21.697Z,11.00
2023-02-28T11:25:59.231Z,10.80
2023-02-28T11:28:33.382Z,10.90
2023-02-28T11:31:07.192Z,10.30
2023-02-28T11:33:43.567Z,10.00
2023-02-28T11:36:36.148Z,10.20
2023-02-28T11:39:11.988Z,10.80
2023-02-28T11:41:55.889Z,11.70
2023-02-28T11:44:41.305Z,12.10
2023-02-28T11:47:13.996Z,12.20
2023-02-28T11:50:02.091Z,11.80
2023-02-28T11:52:43.800Z,11.10
2023-02-28T11:55:16.867Z,10.30
2023-02-28T11:57:50.595Z,9.50
2023-02-28T12:00:52.738Z,8.80
2023-02-28T12:03:29.161Z,8.20
2023-02-28T12:06:33.735Z,7.70
2023-02-28T12:09:11.855Z,7.30
2023-02-28T12:11:55.952Z,7.10
2023-02-28T12:14:42.791Z,6.90
2023-02-28T12:17:30.537Z,6.70
2023-02-28T12:20:10.021Z,6.60
2023-02-28T12:22:39.776Z,6.50
2023-02-28T12:25:35.926Z,6.50
2023-02-28T12:28:03.365Z,6.40
2023-02-28T12:30:33.930Z,6.50
2023-02-28T12:33:11.806Z,6.60
2023-02-28T12:35:56.471Z,6.60
2023-02-28T12:38:30.464Z,6.60
2023-02-28T12:41:03.375Z,6.60
2023-02-28T12:43:45.533Z,6.60
2023-02-28T12:46:22.274Z,6.50
2023-02-28T12:48:57.417Z,6.40
2023-02-28T12:51:26.562Z,6.40
2023-02-28T12:54:13.760Z,6.30
2023-02-28T12:56:45.205Z,6.30
2023-02-28T12:59:18.626Z,6.20
2023-02-28T13:02:07.245Z,6.20
2023-02-28T13:04:40.234Z,6.20
2023-02-28T13:07:55.340Z,6.10
2023-02-28T13:10:22.594Z,6.00
2023-02-28T13:12:55.721Z,5.90
2023-02-28T13:15:26.652Z,5.90
2023-02-28T13:17:55.809Z,5.80
2023-02-28T13:20:30.983Z,5.70
2023-02-28T13:23:02.232Z,5.70
2023-02-28T13:25:34.954Z,5.60
2023-02-28T13:28:05.266Z,5.60
2023-02-28T13:30:54.254Z,5.60
2023-02-28T13:33:28.796Z,5.60
2023-02-28T13:36:11.649Z,5.60
2023-02-28T13:38:41.877Z,5.60
2023-02-28T13:41:31.156Z,5.50
2023-02-28T13:44:18.354Z,5.40
2023-02-28T13:46:51.737Z,5.40
2023-02-28T13:49:26.811Z,5.50
2023-02-28T13:51:54.189Z,5.80
2023-02-28T13:54:38.010Z,6.10
2023-02-28T13:57:16.748Z,6.30
2023-02-28T14:00:08.608Z,6.60
2023-02-28T14:03:12.933Z,6.80
2023-02-28T14:05:39.954Z,7.00
2023-02-28T14:08:18.542Z,7.60
2023-02-28T14:10:47.989Z,7.90
2023-02-28T14:13:26.578Z,7.70
2023-02-28T14:16:04.777Z,7.30
2023-02-28T14:18:34.622Z,7.00
2023-02-28T14:21:35.286Z,6.80
2023-02-28T14:24:23.427Z,6.60
2023-02-28T14:27:11.819Z,6.50
2023-02-28T14:29:41.547Z,6.30
2023-02-28T14:32:23.413Z,6.10
2023-02-28T14:35:13.091Z,6.00
2023-02-28T14:37:42.180Z,6.00
2023-02-28T14:40:34.513Z,5.80
2023-02-28T14:43:04.744Z,5.70
2023-02-28T14:45:34.615Z,5.70
2023-02-28T14:48:03.235Z,5.60
2023-02-28T14:50:36.081Z,5.60
2023-02-28T14:53:04.301Z,5.60
2023-02-28T14:55:34.665Z,5.50
2023-02-28T14:58:07.642Z,5.40
2023-02-28T15:00:38.426Z,5.40
2023-02-28T15:03:30.617Z,5.40
2023-02-28T15:06:03.676Z,5.30
2023-02-28T15:08:32.751Z,5.30
2023-02-28T15:11:08.512Z,5.30
2023-02-28T15:13:45.973Z,5.30
2023-02-28T15:16:23.767Z,5.30
2023-02-28T15:18:53.421Z,5.20
2023-02-28T15:21:33.270Z,5.20
2023-02-28T15:24:25.017Z,5.10
2023-02-28T15:26:59.074Z,5.00
2023-02-28T15:29:29.447Z,4.90
2023-02-28T15:32:07.889Z,4.90
2023-02-28T15:34:44.750Z,4.80
2023-02-28T15:37:33.404Z,4.80
2023-02-28T15:40:06.985Z,4.70
2023-02-28T15:42:33.831Z,4.60
2023-02-28T15:45:00.838Z,4.60
2023-02-28T15:47:37.353Z,4.60
2023-02-28T15:50:13.261Z,4.50
2023-02-28T15:52:43.987Z,4.50
2023-02-28T15:55:21.261Z,4.50
2023-02-28T15:57:54.802Z,4.40
2023-02-28T16:00:26.745Z,4.40
2023-02-28T16:02:53.851Z,4.30
2023-02-28T16:05:31.355Z,4.20
2023-02-28T16:08:00.712Z,4.10
2023-02-28T16:10:29.403Z,4.00
2023-02-28T16:12:58.156Z,3.90
2023-02-28T16:15:31.856Z,3.80
2023-02-28T16:17:59.141Z,3.70
2023-02-28T16:20:29.780Z,3.60
2023-02-28T16:22:57.317Z,3.50
2023-02-28T16:25:34.308Z,3.50
2023-02-28T16:28:01.447Z,3.40
2023-02-28T16:30:32.540Z,3.40
2023-02-28T16:32:59.750Z,3.30
2023-02-28T16:35:26.639Z,3.20
2023-02-28T16:37:53.710Z,3.10
2023-02-28T16:40:26.404Z,3.00
2023-02-28T16:42:59.616Z,3.00
2023-02-28T16:45:28.356Z,2.90
2023-02-28T16:47:55.864Z,2.80
2023-02-28T16:50:25.656Z,2.80
2023-02-28T16:52:53.273Z,2.70
2023-02-28T16:55:23.081Z,2.60
2023-02-28T16:57:54.762Z,2.60
2023-02-28T17:00:22.009Z,2.50
2023-02-28T17:02:48.921Z,2.50
2023-02-28T17:05:16.706Z,2.40
2023-02-28T17:07:46.064Z,2.40
2023-02-28T17:10:24.815Z,2.40
2023-02-28T17:12:52.790Z,2.40
2023-02-28T17:15:21.589Z,2.30
2023-02-28T17:17:50.866Z,2.20
2023-02-28T17:20:23.448Z,2.20
2023-02-28T17:22:51.809Z,2.10
2023-02-28T17:25:18.804Z,2.10
2023-02-28T17:27:45.588Z,2.00
2023-02-28T17:30:19.956Z,2.00
2023-02-28T17:32:47.327Z,2.00
2023-02-28T17:35:14.667Z,1.90
2023-02-28T17:37:42.060Z,1.90
2023-02-28T17:40:29.182Z,1.80
2023-02-28T17:42:57.599Z,1.80
2023-02-28T17:45:24.741Z,1.80
2023-02-28T17:47:51.529Z,1.70
2023-02-28T17:50:21.267Z,1.70
2023-02-28T17:52:48.463Z,1.70
2023-02-28T17:55:15.407Z,1.70
2023-02-28T17:57:43.014Z,1.70
2023-02-28T18:00:15.867Z,1.70
2023-02-28T18:02:43.240Z,1.60
2023-02-28T18:05:12.177Z,1.60
2023-02-28T18:07:39.814Z,1.60
2023-02-28T18:10:08.919Z,1.60
2023-02-28T18:12:35.650Z,1.50
2023-02-28T18:15:02.549Z,1.50
2023-02-28T18:17:29.300Z,1.50
2023-02-28T18:19:56.700Z,1.40
2023-02-28T18:22:23.464Z,1.40
2023-02-28T18:24:50.596Z,1.30
2023-02-28T18:27:17.387Z,1.30
2023-02-28T18:29:44.143Z,1.30
2023-02-28T18:32:11.308Z,1.20
2023-02-28T18:34:38.196Z,1.20
2023-02-28T18:37:04.948Z,1.20
2023-02-28T18:39:32.494Z,1.20
2023-02-28T18:41:59.426Z,1.20
2023-02-28T18:44:26.187Z,1.20
2023-02-28T18:46:53.466Z,1.10
2023-02-28T18:49:20.425Z,1.10
2023-02-28T18:51:48.046Z,1.10
2023-02-28T18:54:16.487Z,1.10
2023-02-28T18:56:43.756Z,1.10
2023-02-28T18:59:11.331Z,1.10
2023-02-28T19:01:38.214Z,1.00
2023-02-28T19:04:05.566Z,1.00
2023-02-28T19:06:33.501Z,1.00
2023-02-28T19:09:03.667Z,1.00
2023-02-28T19:11:30.818Z,1.00
2023-02-28T19:13:57.860Z,0.90
2023-02-28T19:16:25.182Z,0.90
2023-02-28T19:18:52.016Z,0.90
2023-02-28T19:21:26.900Z,0.90
2023-02-28T19:23:53.908Z,0.80
2023-02-28T19:26:23.642Z,0.90
2023-02-28T19:28:53.781Z,0.80
2023-02-28T19:31:23.870Z,0.80
2023-02-28T19:33:52.964Z,0.80
2023-02-28T19:36:20.985Z,0.80
2023-02-28T19:38:48.432Z,0.80
2023-02-28T19:41:17.883Z,0.80
2023-02-28T19:43:44.834Z,0.80
2023-02-28T19:46:12.335Z,0.80
2023-02-28T19:48:40.144Z,0.80
2023-02-28T19:51:09.803Z,0.70
2023-02-28T19:53:38.325Z,0.70
2023-02-28T19:56:06.419Z,0.70
2023-02-28T19:58:33.678Z,0.70
2023-02-28T20:01:11.236Z,0.70
2023-02-28T20:03:38.293Z,0.70
2023-02-28T20:06:10.267Z,0.60
2023-02-28T20:08:38.008Z,0.60
2023-02-28T20:11:15.610Z,0.60
2023-02-28T20:13:43.080Z,0.60
2023-02-28T20:16:11.729Z,0.50
2023-02-28T20:18:40.239Z,0.50
2023-02-28T20:21:11.635Z,0.50
2023-02-28T20:23:39.855Z,0.50
2023-02-28T20:26:07.146Z,0.50
2023-02-28T20:28:34.054Z,0.50
2023-02-28T20:31:01.286Z,0.40
2023-02-28T20:33:28.126Z,0.40
2023-02-28T20:36:05.562Z,0.30
2023-02-28T20:38:32.340Z,0.30
2023-02-28T20:41:00.110Z,0.30
2023-02-28T20:43:27.719Z,0.30
2023-02-28T20:46:01.855Z,0.30
2023-02-28T20:48:30.708Z,0.20
2023-02-28T20:50:58.999Z,0.20
2023-02-28T20:53:27.739Z,0.20
2023-02-28T20:55:55.527Z,0.20
2023-02-28T20:58:23.708Z,0.20
2023-02-28T21:00:50.523Z,0.30
2023-02-28T21:03:17.318Z,0.30
2023-02-28T21:05:44.069Z,0.30
2023-02-28T21:08:10.802Z,0.30
2023-02-28T21:10:38.640Z,0.30
2023-02-28T21:13:05.344Z,0.30
2023-02-28T21:15:32.114Z,0.30
2023-02-28T21:17:58.938Z,0.30
2023-02-28T21:20:25.748Z,0.30
2023-02-28T21:22:53.504Z,0.30
2023-02-28T21:25:20.407Z,0.30
2023-02-28T21:27:48.377Z,0.30
2023-02-28T21:30:15.245Z,0.30
2023-02-28T21:32:42.003Z,0.30
2023-02-28T21:35:09.169Z,0.20
2023-02-28T21:37:38.483Z,0.20
2023-02-28T21:40:06.019Z,0.20
2023-02-28T21:42:32.791Z,0.20
2023-02-28T21:45:00.885Z,0.10
2023-02-28T21:47:31.325Z,0.10
2023-02-28T21:50:00.503Z,0.10
2023-02-28T21:52:27.266Z,0.10
2023-02-28T21:54:53.997Z,0.00
2023-02-28T21:57:20.987Z,0.00
2023-02-28T21:59:47.946Z,0.00
2023-02-28T22:02:14.686Z,0.00
2023-02-28T22:04:41.413Z,0.00
2023-02-28T22:07:08.260Z,0.00
2023-02-28T22:09:35.049Z,0.00
2023-02-28T22:12:01.769Z,0.00
2023-02-28T22:14:28.567Z,0.00
2023-02-28T22:16:56.938Z,0.00
2023-02-28T22:19:24.649Z,-0.10
2023-02-28T22:21:53.711Z,-0.10
2023-02-28T22:24:24.077Z,-0.20
2023-02-28T22:26:52.247Z,-0.20
2023-02-28T22:29:19.434Z,-0.20
2023-02-28T22:31:46.415Z,-0.20
2023-02-28T22:34:14.767Z,-0.20
2023-02-28T22:36:42.378Z,-0.20
2023-02-28T22:39:10.162Z,-0.20
2023-02-28T22:41:36.908Z,-0.20
2023-02-28T22:44:04.995Z,-0.20
2023-02-28T22:46:34.181Z,-0.20
2023-02-28T22:49:03.327Z,-0.30
2023-02-28T22:51:30.306Z,-0.30
2023-02-28T22:53:58.193Z,-0.30
2023-02-28T22:56:26.712Z,-0.30
2023-02-28T22:58:56.548Z,-0.30
2023-02-28T23:01:25.285Z,-0.30
2023-02-28T23:03:53.025Z,-0.30
2023-02-28T23:06:32.363Z,-0.40
2023-02-28T23:09:02.291Z,-0.40
2023-02-28T23:11:32.527Z,-0.40
2023-02-28T23:13:59.677Z,-0.40
2023-02-28T23:16:36.002Z,-0.40
2023-02-28T23:19:06.240Z,-0.50
2023-02-28T23:21:34.264Z,-0.50
2023-02-28T23:24:02.741Z,-0.50
2023-02-28T23:26:31.351Z,-0.50
2023-02-28T23:28:58.936Z,-0.50
2023-02-28T23:31:26.030Z,-0.50
2023-02-28T23:33:56.890Z,-0.50
2023-02-28T23:36:24.292Z,-0.50
2023-02-28T23:38:52.740Z,-0.50
2023-02-28T23:41:21.467Z,-0.50
2023-02-28T23:43:48.333Z,-0.50
2023-02-28T23:46:18.514Z,-0.50
2023-02-28T23:48:46.301Z,-0.50
2023-02-28T23:51:20.831Z,-0.50
2023-02-28T23:53:49.104Z,-0.50
2023-02-28T23:56:21.565Z,-0.60
2023-02-28T23:58:48.625Z,-0.60
